Terminal Aerodrome Forecast
Issued by NWS Burlington, VT

Home | Current Version | Previous Version | Text Only | Print | Product List | Glossary On
Versions: 1 2 3 4 5 6 7 8 9 10 11 12 13 14 15 16 17 18 19 20 21 22 23 24 25
000
FTUS41 KBTV 181731
TAFBTV
TAF
KBTV 181731Z 1818/1918 22007KT P6SM VCSH OVC045
      TEMPO 1818/1821 6SM -SHSN BR BKN040
     FM182100 27005KT P6SM OVC045
     FM190700 VRB03KT P6SM VCSH OVC045
     FM191200 18005KT P6SM OVC040=

USA.gov is the U.S. government's official web portal to all federal, state and local government web resources and services.